createdAt,value
2019-04-27T00:00:57.559Z,75.35
2019-04-27T00:03:41.487Z,76.04
2019-04-27T00:06:13.565Z,76.31
2019-04-27T00:08:47.121Z,75.98
2019-04-27T00:11:42.090Z,76.19
2019-04-27T00:14:15.001Z,75.78
2019-04-27T00:17:00.286Z,75.98
2019-04-27T00:19:46.351Z,76.09
2019-04-27T00:22:27.628Z,75.94
2019-04-27T00:24:58.084Z,75.64
2019-04-27T00:27:28.590Z,75.84
2019-04-27T00:29:58.209Z,75.96
2019-04-27T00:32:28.453Z,76.53
2019-04-27T00:34:58.036Z,77.13
2019-04-27T00:37:47.569Z,76.58
2019-04-27T00:40:30.332Z,76.01
2019-04-27T00:43:00.143Z,76.21
2019-04-27T00:45:30.898Z,76.59
2019-04-27T00:48:00.308Z,76.83
2019-04-27T00:50:33.661Z,76.83
2019-04-27T00:53:04.672Z,76.53
2019-04-27T00:55:38.040Z,75.94
2019-04-27T00:58:27.820Z,75.62
2019-04-27T01:01:14.986Z,75.46
2019-04-27T01:03:49.206Z,75.51
2019-04-27T01:06:18.800Z,75.96
2019-04-27T01:08:48.450Z,76.68
2019-04-27T01:11:18.012Z,76.45
2019-04-27T01:13:48.885Z,76.49
2019-04-27T01:16:22.036Z,76.68
2019-04-27T01:18:52.316Z,76.47
2019-04-27T01:21:22.893Z,76.53
2019-04-27T01:23:54.207Z,77.08
2019-04-27T01:26:45.558Z,77.34
2019-04-27T01:29:19.406Z,77.59
2019-04-27T01:31:52.289Z,77.80
2019-04-27T01:34:23.897Z,78.10
2019-04-27T01:36:55.776Z,78.25
2019-04-27T01:39:25.396Z,78.79
2019-04-27T01:41:54.967Z,78.97
2019-04-27T01:44:25.373Z,78.77
2019-04-27T01:46:55.082Z,79.08
2019-04-27T01:49:26.320Z,79.14
2019-04-27T01:51:55.719Z,79.30
2019-04-27T01:54:26.918Z,79.28
2019-04-27T01:56:56.402Z,79.12
2019-04-27T01:59:25.884Z,79.18
2019-04-27T02:02:19.028Z,79.14
2019-04-27T02:05:11.795Z,79.20
2019-04-27T02:07:44.124Z,79.13
2019-04-27T02:10:14.534Z,79.96
2019-04-27T02:12:48.706Z,80.18
2019-04-27T02:15:19.233Z,80.63
2019-04-27T02:17:50.950Z,80.54
2019-04-27T02:20:23.010Z,80.38
2019-04-27T02:22:54.414Z,80.36
2019-04-27T02:25:25.070Z,80.29
2019-04-27T02:28:00.743Z,80.32
2019-04-27T02:31:09.572Z,80.53
2019-04-27T02:33:44.808Z,80.73
2019-04-27T02:36:15.909Z,80.65
2019-04-27T02:38:46.614Z,80.69
2019-04-27T02:41:19.844Z,80.82
2019-04-27T02:44:02.834Z,80.98
2019-04-27T02:46:35.559Z,81.25
2019-04-27T02:49:07.390Z,81.33
2019-04-27T02:52:15.281Z,80.80
2019-04-27T02:54:46.240Z,80.45
2019-04-27T02:57:16.733Z,80.29
2019-04-27T02:59:46.193Z,80.30
2019-04-27T03:02:40.473Z,80.26
2019-04-27T03:05:13.140Z,80.65
2019-04-27T03:07:46.270Z,80.86
2019-04-27T03:10:16.961Z,80.73
2019-04-27T03:12:51.016Z,80.53
2019-04-27T03:15:30.506Z,80.42
2019-04-27T03:18:10.813Z,80.38
2019-04-27T03:20:52.103Z,80.67
2019-04-27T03:23:21.571Z,80.79
2019-04-27T03:26:15.673Z,80.90
2019-04-27T03:28:46.672Z,81.04
2019-04-27T03:31:21.381Z,81.62
2019-04-27T03:33:58.321Z,82.03
2019-04-27T03:36:21.977Z,82.01
2019-04-27T03:38:52.050Z,81.70
2019-04-27T03:41:25.225Z,81.72
2019-04-27T03:43:55.850Z,81.74
2019-04-27T03:46:26.600Z,81.93
2019-04-27T03:48:59.982Z,81.92
2019-04-27T03:51:35.632Z,82.00
2019-04-27T03:54:24.358Z,81.98
2019-04-27T03:57:19.951Z,81.82
2019-04-27T04:00:00.859Z,82.13
2019-04-27T04:02:31.706Z,82.00
2019-04-27T04:05:03.112Z,82.03
2019-04-27T04:07:35.630Z,81.82
2019-04-27T04:10:07.015Z,81.95
2019-04-27T04:12:50.060Z,81.76
2019-04-27T04:15:31.495Z,81.55
2019-04-27T04:18:03.236Z,81.62
2019-04-27T04:20:32.750Z,81.49
2019-04-27T04:23:03.626Z,81.43
2019-04-27T04:25:34.425Z,81.51
2019-04-27T04:28:05.772Z,81.32
2019-04-27T04:30:35.381Z,80.79
2019-04-27T04:33:05.093Z,80.55
2019-04-27T04:35:36.402Z,81.22
2019-04-27T04:38:06.825Z,81.53
2019-04-27T04:40:42.771Z,81.71
2019-04-27T04:43:21.648Z,81.40
2019-04-27T04:46:22.985Z,81.40
2019-04-27T04:48:53.805Z,81.63
2019-04-27T04:51:27.031Z,81.22
2019-04-27T04:53:56.497Z,81.26
2019-04-27T04:56:29.187Z,81.46
2019-04-27T04:59:00.194Z,81.60
2019-04-27T05:01:30.093Z,81.74
2019-04-27T05:04:01.333Z,81.41
2019-04-27T05:06:31.253Z,81.20
2019-04-27T05:09:04.460Z,81.33
2019-04-27T05:11:35.071Z,80.97
2019-04-27T05:14:04.572Z,80.71
2019-04-27T05:16:34.085Z,80.33
2019-04-27T05:19:06.373Z,80.50
2019-04-27T05:21:38.787Z,80.98
2019-04-27T05:24:09.502Z,80.24
2019-04-27T05:26:39.730Z,80.04
2019-04-27T05:29:10.362Z,78.84
2019-04-27T05:31:42.232Z,78.10
2019-04-27T05:34:12.889Z,78.14
2019-04-27T05:36:48.484Z,77.78
2019-04-27T05:39:18.041Z,77.69
2019-04-27T05:41:45.812Z,76.88
2019-04-27T05:44:24.361Z,76.71
2019-04-27T05:47:11.750Z,76.38
2019-04-27T05:49:42.835Z,76.10
2019-04-27T05:52:30.156Z,76.11
2019-04-27T05:55:02.716Z,76.17
2019-04-27T05:57:33.234Z,76.43
2019-04-27T06:00:05.055Z,75.91
2019-04-27T06:02:34.619Z,75.87
2019-04-27T06:05:05.924Z,76.19
2019-04-27T06:07:35.550Z,75.66
2019-04-27T06:10:05.427Z,74.94
2019-04-27T06:12:35.035Z,74.47
2019-04-27T06:15:09.507Z,74.07
2019-04-27T06:17:39.312Z,73.88
2019-04-27T06:20:10.312Z,73.84
2019-04-27T06:22:39.837Z,73.50
2019-04-27T06:25:11.845Z,73.21
2019-04-27T06:27:41.911Z,72.47
2019-04-27T06:30:12.733Z,72.62
2019-04-27T06:32:43.253Z,71.89
2019-04-27T06:35:14.792Z,72.05
2019-04-27T06:37:44.274Z,71.72
2019-04-27T06:40:15.490Z,71.47
2019-04-27T06:42:48.509Z,71.29
2019-04-27T06:45:19.668Z,70.80
2019-04-27T06:47:51.298Z,70.22
2019-04-27T06:50:21.802Z,69.57
2019-04-27T06:52:51.791Z,68.89
2019-04-27T06:55:21.414Z,69.02
2019-04-27T06:57:51.081Z,65.33
2019-04-27T07:00:20.901Z,59.28
2019-04-27T07:02:50.400Z,52.91
2019-04-27T07:05:21.205Z,48.84
2019-04-27T07:07:50.675Z,47.25
2019-04-27T07:10:20.280Z,45.98
2019-04-27T07:12:50.015Z,43.85
2019-04-27T07:15:21.359Z,42.00
2019-04-27T07:17:50.887Z,39.74
2019-04-27T07:20:20.588Z,39.57
2019-04-27T07:22:51.338Z,39.64
2019-04-27T07:25:20.914Z,38.44
2019-04-27T07:27:50.711Z,37.72
2019-04-27T07:30:20.329Z,37.56
2019-04-27T07:32:49.881Z,35.80
2019-04-27T07:35:20.723Z,34.16
2019-04-27T07:37:51.213Z,33.54
2019-04-27T07:40:20.654Z,32.64
2019-04-27T07:42:55.892Z,31.83
2019-04-27T07:45:33.155Z,31.83
2019-04-27T07:48:02.859Z,29.16
2019-04-27T07:50:32.516Z,28.50
2019-04-27T07:53:03.106Z,27.59
2019-04-27T07:55:33.141Z,28.31
2019-04-27T07:58:05.228Z,28.06
2019-04-27T08:00:34.863Z,27.86
2019-04-27T08:03:04.324Z,27.67
2019-04-27T08:05:35.310Z,27.41
2019-04-27T08:08:04.891Z,27.27
2019-04-27T08:10:34.525Z,25.90
2019-04-27T08:13:06.489Z,25.99
2019-04-27T08:15:39.481Z,26.01
2019-04-27T08:18:09.155Z,23.62
2019-04-27T08:20:39.144Z,24.12
2019-04-27T08:23:10.215Z,24.06
2019-04-27T08:25:39.888Z,24.45
2019-04-27T08:28:21.460Z,24.49
2019-04-27T08:31:00.524Z,23.80
2019-04-27T08:33:35.088Z,24.71
2019-04-27T08:36:06.045Z,25.13
2019-04-27T08:38:38.973Z,24.58
2019-04-27T08:41:10.302Z,24.79
2019-04-27T08:43:39.986Z,24.52
2019-04-27T08:46:12.204Z,24.53
2019-04-27T08:48:45.338Z,24.59
2019-04-27T08:51:16.312Z,23.67
2019-04-27T08:53:47.515Z,24.61
2019-04-27T08:56:19.368Z,23.86
2019-04-27T08:58:49.939Z,23.83
2019-04-27T09:01:20.745Z,24.24
2019-04-27T09:03:53.379Z,23.53
2019-04-27T09:06:24.708Z,22.55
2019-04-27T09:09:03.466Z,22.78
2019-04-27T09:11:46.044Z,22.48
2019-04-27T09:14:33.548Z,23.66
2019-04-27T09:17:26.048Z,23.61
2019-04-27T09:20:28.630Z,23.53
2019-04-27T09:22:59.216Z,23.13
2019-04-27T09:25:31.397Z,22.03
2019-04-27T09:28:04.155Z,22.17
2019-04-27T09:30:35.201Z,23.11
2019-04-27T09:33:05.350Z,24.10
2019-04-27T09:35:35.638Z,25.27
2019-04-27T09:38:07.113Z,25.79
2019-04-27T09:40:37.041Z,27.46
2019-04-27T09:43:08.487Z,28.63
2019-04-27T09:45:39.598Z,29.43
2019-04-27T09:48:11.083Z,29.52
2019-04-27T09:50:42.478Z,31.11
2019-04-27T09:53:13.043Z,30.69
2019-04-27T09:55:42.743Z,31.68
2019-04-27T09:58:14.022Z,32.11
2019-04-27T10:00:45.833Z,31.88
2019-04-27T10:03:15.532Z,32.79
2019-04-27T10:05:46.360Z,32.21
2019-04-27T10:08:16.987Z,33.18
2019-04-27T10:10:49.222Z,32.87
2019-04-27T10:13:20.673Z,32.87
2019-04-27T10:15:51.200Z,32.85
2019-04-27T10:18:20.783Z,31.33
2019-04-27T10:21:01.249Z,31.03
2019-04-27T10:23:23.837Z,30.52
2019-04-27T10:25:55.746Z,31.86
2019-04-27T10:28:25.283Z,31.09
2019-04-27T10:30:55.730Z,31.09
2019-04-27T10:33:27.684Z,31.23
2019-04-27T10:35:57.310Z,30.07
2019-04-27T10:38:26.950Z,30.99
2019-04-27T10:40:56.833Z,31.89
2019-04-27T10:43:26.329Z,32.21
2019-04-27T10:45:57.239Z,31.59
2019-04-27T10:48:28.011Z,30.14
2019-04-27T10:50:58.555Z,30.14
2019-04-27T10:53:28.890Z,29.73
2019-04-27T10:55:59.719Z,30.64
2019-04-27T10:58:29.134Z,30.53
2019-04-27T11:01:01.942Z,30.12
2019-04-27T11:03:49.343Z,29.06
2019-04-27T11:06:35.254Z,30.03
2019-04-27T11:09:08.383Z,30.03
2019-04-27T11:11:38.908Z,30.46
2019-04-27T11:14:08.666Z,30.95
2019-04-27T11:16:39.802Z,30.94
2019-04-27T11:19:09.539Z,29.88
2019-04-27T11:21:40.270Z,29.46
2019-04-27T11:24:10.991Z,30.00
2019-04-27T11:26:40.571Z,30.43
2019-04-27T11:29:11.250Z,31.64
2019-04-27T11:31:42.113Z,31.65
2019-04-27T11:34:11.647Z,31.61
2019-04-27T11:36:51.807Z,31.27
2019-04-27T11:39:21.395Z,31.36
2019-04-27T11:41:50.953Z,30.98
2019-04-27T11:44:20.716Z,30.98
2019-04-27T11:46:51.640Z,30.01
2019-04-27T11:49:21.344Z,30.36
2019-04-27T11:51:53.949Z,31.30
2019-04-27T11:54:25.557Z,30.75
2019-04-27T11:56:56.381Z,31.36
2019-04-27T11:59:27.804Z,31.99
2019-04-27T12:01:59.909Z,31.78
2019-04-27T12:04:29.558Z,31.78
2019-04-27T12:07:01.176Z,32.25
2019-04-27T12:09:32.049Z,32.92
2019-04-27T12:12:13.563Z,33.87
2019-04-27T12:14:36.031Z,32.53
2019-04-27T12:17:08.219Z,32.24
2019-04-27T12:19:37.811Z,32.54
2019-04-27T12:22:10.406Z,33.23
2019-04-27T12:24:40.111Z,32.48
2019-04-27T12:27:21.710Z,32.31
2019-04-27T12:30:08.437Z,32.28
2019-04-27T12:32:39.918Z,32.25
2019-04-27T12:35:10.987Z,32.40
2019-04-27T12:37:40.458Z,32.08
2019-04-27T12:40:10.447Z,31.59
2019-04-27T12:42:41.688Z,31.35
2019-04-27T12:45:12.524Z,31.34
2019-04-27T12:47:43.903Z,31.09
2019-04-27T12:50:17.166Z,30.40
2019-04-27T12:52:49.060Z,30.31
2019-04-27T12:55:31.534Z,31.01
2019-04-27T12:58:36.454Z,30.22
2019-04-27T13:01:11.524Z,29.77
2019-04-27T13:03:41.196Z,29.44
2019-04-27T13:06:11.648Z,28.88
2019-04-27T13:08:41.224Z,29.91
2019-04-27T13:11:12.540Z,29.79
2019-04-27T13:13:42.090Z,30.15
2019-04-27T13:16:11.551Z,30.33
2019-04-27T13:18:43.203Z,30.17
2019-04-27T13:21:12.644Z,30.28
2019-04-27T13:23:43.168Z,30.19
2019-04-27T13:26:16.360Z,31.14
2019-04-27T13:28:46.690Z,30.13
2019-04-27T13:31:16.284Z,31.06
2019-04-27T13:33:47.984Z,31.46
2019-04-27T13:36:19.245Z,31.82
2019-04-27T13:38:48.691Z,35.13
2019-04-27T13:41:27.808Z,38.99
2019-04-27T13:43:49.616Z,41.55
2019-04-27T13:46:47.364Z,44.12
2019-04-27T13:49:46.013Z,44.92
2019-04-27T13:52:21.695Z,44.70
2019-04-27T13:54:52.209Z,46.49
2019-04-27T13:57:23.426Z,46.37
2019-04-27T13:59:53.554Z,47.98
2019-04-27T14:02:24.229Z,47.53
2019-04-27T14:04:55.772Z,48.24
2019-04-27T14:07:27.250Z,48.38
2019-04-27T14:09:56.741Z,47.94
2019-04-27T14:12:28.502Z,47.72
2019-04-27T14:14:59.242Z,47.56
2019-04-27T14:17:29.326Z,48.02
2019-04-27T14:19:59.585Z,48.19
2019-04-27T14:22:31.612Z,48.39
2019-04-27T14:25:03.003Z,48.40
2019-04-27T14:27:40.702Z,49.20
2019-04-27T14:30:12.986Z,49.54
2019-04-27T14:32:44.438Z,49.78
2019-04-27T14:35:15.613Z,49.46
2019-04-27T14:37:47.651Z,49.50
2019-04-27T14:40:18.871Z,50.16
2019-04-27T14:42:53.662Z,50.13
2019-04-27T14:45:22.974Z,50.12
2019-04-27T14:47:54.292Z,50.23
2019-04-27T14:50:25.113Z,50.31
2019-04-27T14:52:58.920Z,50.49
2019-04-27T14:55:31.499Z,51.52
2019-04-27T14:58:00.956Z,50.91
2019-04-27T15:00:32.282Z,51.10
2019-04-27T15:03:04.067Z,51.46
2019-04-27T15:05:33.479Z,50.78
2019-04-27T15:08:09.618Z,50.88
2019-04-27T15:10:38.248Z,50.11
2019-04-27T15:13:09.132Z,49.81
2019-04-27T15:15:40.012Z,49.62
2019-04-27T15:18:13.340Z,49.37
2019-04-27T15:20:46.403Z,49.46
2019-04-27T15:23:16.778Z,50.11
2019-04-27T15:25:50.092Z,49.58
2019-04-27T15:28:24.585Z,49.98
2019-04-27T15:31:23.542Z,49.75
2019-04-27T15:34:11.115Z,49.48
2019-04-27T15:36:56.792Z,49.77
2019-04-27T15:39:45.527Z,50.12
2019-04-27T15:42:28.314Z,50.51
2019-04-27T15:44:58.546Z,51.12
2019-04-27T15:47:28.564Z,51.24
2019-04-27T15:49:59.018Z,50.89
2019-04-27T15:52:33.143Z,51.62
2019-04-27T15:55:02.701Z,52.11
2019-04-27T15:57:33.791Z,51.84
2019-04-27T16:00:14.750Z,51.49
2019-04-27T16:02:40.195Z,51.50
2019-04-27T16:05:10.178Z,50.86
2019-04-27T16:07:39.670Z,50.63
2019-04-27T16:10:09.392Z,50.46
2019-04-27T16:12:54.634Z,50.98
2019-04-27T16:15:13.465Z,51.22
2019-04-27T16:17:51.018Z,51.55
2019-04-27T16:20:22.085Z,51.60
2019-04-27T16:22:49.655Z,51.23
2019-04-27T16:25:23.594Z,51.24
2019-04-27T16:27:52.177Z,51.66
2019-04-27T16:30:21.820Z,52.25
2019-04-27T16:32:51.236Z,52.13
2019-04-27T16:35:22.968Z,51.82
2019-04-27T16:38:09.632Z,51.72
2019-04-27T16:40:39.258Z,51.97
2019-04-27T16:43:09.096Z,51.97
2019-04-27T16:45:38.939Z,52.26
2019-04-27T16:48:09.134Z,52.79
2019-04-27T16:50:39.125Z,52.74
2019-04-27T16:53:12.520Z,52.98
2019-04-27T16:55:41.288Z,53.03
2019-04-27T16:58:15.832Z,53.62
2019-04-27T17:00:42.019Z,53.69
2019-04-27T17:03:11.536Z,54.42
2019-04-27T17:05:41.487Z,54.36
2019-04-27T17:08:21.602Z,54.71
2019-04-27T17:10:42.261Z,55.08
2019-04-27T17:13:14.628Z,55.77
2019-04-27T17:16:06.467Z,55.71
2019-04-27T17:18:41.586Z,56.02
2019-04-27T17:21:18.890Z,56.78
2019-04-27T17:23:42.214Z,58.06
2019-04-27T17:26:21.084Z,57.66
2019-04-27T17:28:51.061Z,56.60
2019-04-27T17:31:23.335Z,56.63
2019-04-27T17:33:58.656Z,57.62
2019-04-27T17:36:29.265Z,58.47
2019-04-27T17:38:58.896Z,59.50
2019-04-27T17:41:29.468Z,60.55
2019-04-27T17:44:00.802Z,62.61
2019-04-27T17:46:30.220Z,63.81
2019-04-27T17:49:00.211Z,64.34
2019-04-27T17:51:35.275Z,65.79
2019-04-27T17:54:07.965Z,67.01
2019-04-27T17:56:48.461Z,68.38
2019-04-27T17:59:11.975Z,67.75
2019-04-27T18:01:42.505Z,67.98
2019-04-27T18:04:11.890Z,67.27
2019-04-27T18:06:42.630Z,68.15
2019-04-27T18:09:18.764Z,68.57
2019-04-27T18:11:50.326Z,69.56
2019-04-27T18:14:20.475Z,67.89
2019-04-27T18:16:49.970Z,68.45
2019-04-27T18:19:31.530Z,68.66
2019-04-27T18:22:02.834Z,68.56
2019-04-27T18:24:55.714Z,68.61
2019-04-27T18:27:45.530Z,68.48
2019-04-27T18:30:22.181Z,70.45
2019-04-27T18:32:51.800Z,71.18
2019-04-27T18:35:26.517Z,71.62
2019-04-27T18:38:00.158Z,71.45
2019-04-27T18:40:32.038Z,69.12
2019-04-27T18:43:01.932Z,68.30
2019-04-27T18:45:29.766Z,68.12
2019-04-27T18:48:06.573Z,69.05
2019-04-27T18:50:43.570Z,68.85
2019-04-27T18:53:23.226Z,70.16
2019-04-27T18:55:57.649Z,70.37
2019-04-27T18:58:22.136Z,70.20
2019-04-27T19:00:52.655Z,70.67
2019-04-27T19:03:22.097Z,70.80
2019-04-27T19:05:51.513Z,71.51
2019-04-27T19:08:23.464Z,70.69
2019-04-27T19:10:55.866Z,71.74
2019-04-27T19:13:25.272Z,71.92
2019-04-27T19:15:59.900Z,71.22
2019-04-27T19:18:29.409Z,70.79
2019-04-27T19:20:58.792Z,70.84
2019-04-27T19:23:29.193Z,70.18
2019-04-27T19:26:08.755Z,70.81
2019-04-27T19:28:58.365Z,70.25
2019-04-27T19:31:33.349Z,69.59
2019-04-27T19:34:04.654Z,69.48
2019-04-27T19:36:38.670Z,69.53
2019-04-27T19:39:13.910Z,69.72
2019-04-27T19:41:56.230Z,69.49
2019-04-27T19:44:14.131Z,69.41
2019-04-27T19:46:46.213Z,69.54
2019-04-27T19:49:16.692Z,69.09
2019-04-27T19:51:48.027Z,69.18
2019-04-27T19:54:20.432Z,69.44
2019-04-27T19:56:50.197Z,69.60
2019-04-27T19:59:25.439Z,69.88
2019-04-27T20:01:58.397Z,69.01
2019-04-27T20:04:33.017Z,69.19
2019-04-27T20:07:04.604Z,69.76
2019-04-27T20:09:47.872Z,70.07
2019-04-27T20:12:18.497Z,69.77
2019-04-27T20:14:57.325Z,69.67
2019-04-27T20:17:31.578Z,69.70
2019-04-27T20:20:01.591Z,70.04
2019-04-27T20:22:32.159Z,69.63
2019-04-27T20:25:02.209Z,70.10
2019-04-27T20:27:45.343Z,70.68
2019-04-27T20:30:05.603Z,70.82
2019-04-27T20:32:35.310Z,70.51
2019-04-27T20:35:05.743Z,70.94
2019-04-27T20:37:36.932Z,69.50
2019-04-27T20:40:08.779Z,69.79
2019-04-27T20:42:38.444Z,69.47
2019-04-27T20:45:09.552Z,69.86
2019-04-27T20:47:40.116Z,71.19
2019-04-27T20:50:09.613Z,70.82
2019-04-27T20:52:56.726Z,69.47
2019-04-27T20:55:26.267Z,69.59
2019-04-27T20:58:02.713Z,70.03
2019-04-27T21:00:28.554Z,69.48
2019-04-27T21:03:19.968Z,69.12
2019-04-27T21:06:18.617Z,69.93
2019-04-27T21:08:48.226Z,68.07
2019-04-27T21:11:18.615Z,67.95
2019-04-27T21:13:48.396Z,67.78
2019-04-27T21:16:19.019Z,67.89
2019-04-27T21:18:51.349Z,67.94
2019-04-27T21:21:22.656Z,69.20
2019-04-27T21:23:53.831Z,69.00
2019-04-27T21:26:25.282Z,68.13
2019-04-27T21:28:55.157Z,68.13
2019-04-27T21:31:26.141Z,67.68
2019-04-27T21:33:55.823Z,68.42
2019-04-27T21:36:25.726Z,67.71
2019-04-27T21:38:55.267Z,67.66
2019-04-27T21:41:25.029Z,67.59
2019-04-27T21:43:54.849Z,68.26
2019-04-27T21:46:24.373Z,68.10
2019-04-27T21:48:56.234Z,68.18
2019-04-27T21:51:26.870Z,68.80
2019-04-27T21:54:09.698Z,68.72
2019-04-27T21:56:39.324Z,68.20
2019-04-27T21:59:11.069Z,68.15
2019-04-27T22:01:41.583Z,68.17
2019-04-27T22:04:12.882Z,69.53
2019-04-27T22:06:42.960Z,68.64
2019-04-27T22:09:14.344Z,68.14
2019-04-27T22:12:04.602Z,68.30
2019-04-27T22:14:35.031Z,68.54
2019-04-27T22:17:04.826Z,68.39
2019-04-27T22:19:34.707Z,68.32
2019-04-27T22:22:24.629Z,68.36
2019-04-27T22:25:05.621Z,67.86
2019-04-27T22:27:35.295Z,67.64
2019-04-27T22:30:05.413Z,68.79
2019-04-27T22:32:35.707Z,68.49
2019-04-27T22:35:25.621Z,68.24
2019-04-27T22:37:57.210Z,66.70
2019-04-27T22:40:44.676Z,65.70
2019-04-27T22:43:44.005Z,65.70
2019-04-27T22:46:17.581Z,65.85
2019-04-27T22:48:47.121Z,65.74
2019-04-27T22:51:16.693Z,65.13
2019-04-27T22:53:47.678Z,65.41
2019-04-27T22:56:19.289Z,65.59
2019-04-27T22:59:01.055Z,65.79
2019-04-27T23:01:42.851Z,65.82
2019-04-27T23:04:16.539Z,65.29
2019-04-27T23:06:47.559Z,65.00
2019-04-27T23:09:17.348Z,65.40
2019-04-27T23:11:48.323Z,65.32
2019-04-27T23:14:17.914Z,65.77
2019-04-27T23:16:52.243Z,65.92
2019-04-27T23:19:22.979Z,66.10
2019-04-27T23:21:54.021Z,66.93
2019-04-27T23:24:25.270Z,67.05
2019-04-27T23:26:54.975Z,67.60
2019-04-27T23:29:25.555Z,66.81
2019-04-27T23:32:02.408Z,66.54
2019-04-27T23:34:33.513Z,66.41
2019-04-27T23:37:06.694Z,66.17
2019-04-27T23:39:37.669Z,66.64
2019-04-27T23:42:08.917Z,68.25
2019-04-27T23:44:39.552Z,68.26
2019-04-27T23:47:09.424Z,68.16
2019-04-27T23:49:40.874Z,67.62
2019-04-27T23:52:17.012Z,67.59
2019-04-27T23:54:46.539Z,67.54
2019-04-27T23:57:15.989Z,67.09
2019-04-27T23:59:46.838Z,67.15
